createdAt,value
2018-06-21T00:01:30.799Z,24.82
2018-06-21T00:03:59.777Z,24.89
2018-06-21T00:06:28.808Z,24.67
2018-06-21T00:08:57.802Z,24.52
2018-06-21T00:11:26.826Z,24.32
2018-06-21T00:13:55.815Z,24.35
2018-06-21T00:16:24.838Z,24.39
2018-06-21T00:18:54.043Z,24.52
2018-06-21T00:21:23.073Z,24.34
2018-06-21T00:23:52.037Z,24.26
2018-06-21T00:26:21.045Z,24.15
2018-06-21T00:28:50.026Z,24.14
2018-06-21T00:31:19.058Z,24.43
2018-06-21T00:33:48.122Z,24.17
2018-06-21T00:36:17.470Z,24.29
2018-06-21T00:38:46.467Z,24.17
2018-06-21T00:41:15.439Z,24.26
2018-06-21T00:43:44.454Z,24.18
2018-06-21T00:46:13.451Z,24.24
2018-06-21T00:48:42.481Z,24.22
2018-06-21T00:51:11.462Z,24.24
2018-06-21T00:53:40.933Z,24.09
2018-06-21T00:56:19.810Z,23.99
2018-06-21T00:58:49.532Z,23.94
2018-06-21T01:01:19.070Z,23.70
2018-06-21T01:03:48.531Z,23.71
2018-06-21T01:06:17.562Z,23.81
2018-06-21T01:08:46.593Z,23.94
2018-06-21T01:11:15.577Z,24.11
2018-06-21T01:13:44.626Z,24.13
2018-06-21T01:16:13.603Z,24.26
2018-06-21T01:18:43.507Z,24.21
2018-06-21T01:21:12.477Z,24.22
2018-06-21T01:23:41.595Z,24.21
2018-06-21T01:26:10.546Z,24.07
2018-06-21T01:28:39.562Z,23.98
2018-06-21T01:31:08.543Z,23.78
2018-06-21T01:33:37.562Z,23.49
2018-06-21T01:36:06.550Z,23.59
2018-06-21T01:38:35.552Z,22.88
2018-06-21T01:41:04.510Z,23.34
2018-06-21T01:43:33.498Z,23.45
2018-06-21T01:46:02.445Z,23.55
2018-06-21T01:48:31.428Z,23.56
2018-06-21T01:51:00.463Z,23.29
2018-06-21T01:53:29.458Z,23.37
2018-06-21T01:55:58.453Z,23.34
2018-06-21T01:58:27.405Z,23.08
2018-06-21T02:00:56.394Z,23.30
2018-06-21T02:03:25.349Z,23.44
2018-06-21T02:05:54.382Z,23.02
2018-06-21T02:08:23.358Z,23.41
2018-06-21T02:10:52.382Z,23.24
2018-06-21T02:13:21.336Z,23.50
2018-06-21T02:15:50.349Z,23.07
2018-06-21T02:18:19.311Z,23.54
2018-06-21T02:23:28.103Z,23.67
2018-06-21T02:25:57.098Z,23.77
2018-06-21T02:28:26.056Z,23.71
2018-06-21T02:30:55.094Z,23.47
2018-06-21T02:33:24.064Z,23.39
2018-06-21T02:35:53.095Z,23.57
2018-06-21T02:38:22.062Z,23.51
2018-06-21T02:40:51.066Z,23.18
2018-06-21T02:43:20.033Z,23.55
2018-06-21T02:45:49.028Z,23.59
2018-06-21T02:48:17.974Z,23.61
2018-06-21T02:50:47.010Z,23.57
2018-06-21T02:53:15.987Z,23.61
2018-06-21T02:55:45.022Z,23.64
2018-06-21T02:58:13.964Z,23.41
2018-06-21T03:00:42.963Z,23.27
2018-06-21T03:03:11.987Z,22.99
2018-06-21T03:05:40.980Z,23.27
2018-06-21T03:08:09.978Z,23.38
2018-06-21T03:10:38.930Z,23.51
2018-06-21T03:13:07.931Z,23.50
2018-06-21T03:15:36.878Z,23.43
2018-06-21T03:18:05.894Z,23.13
2018-06-21T03:20:34.834Z,21.78
2018-06-21T03:23:03.824Z,21.83
2018-06-21T03:25:32.765Z,21.72
2018-06-21T03:28:01.751Z,21.81
2018-06-21T03:30:30.757Z,21.68
2018-06-21T03:32:59.810Z,21.96
2018-06-21T03:35:28.784Z,21.89
2018-06-21T03:37:57.800Z,22.26
2018-06-21T03:40:26.749Z,22.36
2018-06-21T03:42:55.818Z,22.49
2018-06-21T03:45:24.790Z,22.35
2018-06-21T03:47:53.971Z,22.45
2018-06-21T03:50:23.102Z,22.15
2018-06-21T03:52:52.192Z,22.07
2018-06-21T03:55:21.320Z,22.29
2018-06-21T03:57:50.463Z,22.40
2018-06-21T04:00:19.523Z,22.49
2018-06-21T04:02:48.710Z,22.50
2018-06-21T04:05:17.832Z,22.44
2018-06-21T04:07:46.923Z,22.45
2018-06-21T04:10:16.046Z,22.46
2018-06-21T04:12:45.197Z,22.41
2018-06-21T04:15:14.422Z,22.72
2018-06-21T04:17:43.509Z,22.75
2018-06-21T04:20:12.692Z,22.36
2018-06-21T04:22:41.792Z,22.69
2018-06-21T04:25:10.930Z,23.18
2018-06-21T04:27:39.972Z,23.54
2018-06-21T04:30:09.125Z,23.45
2018-06-21T04:32:38.276Z,23.62
2018-06-21T04:35:07.414Z,23.29
2018-06-21T04:37:36.354Z,23.76
2018-06-21T04:40:05.395Z,23.81
2018-06-21T04:42:34.332Z,24.23
2018-06-21T04:45:03.333Z,24.80
2018-06-21T04:47:32.342Z,25.07
2018-06-21T04:50:01.344Z,25.50
2018-06-21T04:52:30.308Z,24.75
2018-06-21T04:54:59.325Z,25.13
2018-06-21T04:57:28.333Z,26.00
2018-06-21T04:59:57.341Z,26.45
2018-06-21T05:02:26.305Z,26.63
2018-06-21T05:04:55.298Z,27.13
2018-06-21T05:07:24.335Z,27.02
2018-06-21T05:09:53.377Z,27.26
2018-06-21T05:12:23.225Z,27.70
2018-06-21T05:14:53.534Z,27.94
2018-06-21T05:17:22.490Z,28.02
2018-06-21T05:19:51.435Z,27.92
2018-06-21T05:22:20.445Z,28.09
2018-06-21T05:24:49.443Z,28.51
2018-06-21T05:27:18.473Z,29.37
2018-06-21T05:29:47.425Z,30.76
2018-06-21T05:32:16.428Z,31.15
2018-06-21T05:34:45.397Z,32.65
2018-06-21T05:37:14.423Z,32.34
2018-06-21T05:39:43.379Z,33.62
2018-06-21T05:42:12.341Z,31.46
2018-06-21T05:44:41.293Z,29.86
2018-06-21T05:47:10.294Z,29.85
2018-06-21T05:49:39.243Z,30.23
2018-06-21T05:52:08.244Z,31.57
2018-06-21T05:54:37.218Z,32.59
2018-06-21T05:57:06.203Z,33.37
2018-06-21T05:59:35.165Z,34.71
2018-06-21T06:02:04.231Z,36.49
2018-06-21T06:04:33.174Z,38.21
2018-06-21T06:07:02.447Z,36.53
2018-06-21T06:09:31.813Z,36.71
2018-06-21T06:12:01.159Z,36.88
2018-06-21T06:14:30.532Z,36.17
2018-06-21T06:16:59.894Z,35.42
2018-06-21T06:19:29.250Z,34.10
2018-06-21T06:21:58.523Z,34.34
2018-06-21T06:24:27.774Z,36.14
2018-06-21T06:26:57.040Z,36.64
2018-06-21T06:29:26.050Z,37.98
2018-06-21T06:31:55.325Z,37.53
2018-06-21T06:34:24.357Z,36.29
2018-06-21T06:36:53.343Z,35.29
2018-06-21T06:39:22.378Z,37.76
2018-06-21T06:41:52.152Z,39.01
2018-06-21T06:44:21.158Z,38.38
2018-06-21T06:46:50.140Z,36.51
2018-06-21T06:49:19.150Z,36.51
2018-06-21T06:51:48.116Z,35.76
2018-06-21T06:54:17.182Z,33.53
2018-06-21T06:56:46.127Z,32.04
2018-06-21T06:59:15.150Z,29.91
2018-06-21T07:01:44.115Z,31.25
2018-06-21T07:04:13.114Z,30.33
2018-06-21T07:06:42.053Z,30.06
2018-06-21T07:09:11.230Z,30.72
2018-06-21T07:11:40.173Z,30.75
2018-06-21T07:14:09.263Z,31.09
2018-06-21T07:16:38.185Z,31.18
2018-06-21T07:19:07.303Z,31.65
2018-06-21T07:21:38.913Z,31.41
2018-06-21T07:24:08.581Z,31.48
2018-06-21T07:26:38.436Z,31.86
2018-06-21T07:29:08.041Z,30.96
2018-06-21T07:31:37.208Z,31.23
2018-06-21T07:34:06.237Z,31.26
2018-06-21T07:36:35.276Z,31.71
2018-06-21T07:39:04.922Z,30.10
2018-06-21T07:41:33.885Z,31.17
2018-06-21T07:44:02.819Z,30.94
2018-06-21T07:46:32.067Z,31.00
2018-06-21T07:49:01.082Z,30.38
2018-06-21T07:51:30.070Z,30.72
2018-06-21T07:53:59.016Z,30.33
2018-06-21T07:56:28.047Z,30.24
2018-06-21T07:58:56.986Z,29.65
2018-06-21T08:01:25.997Z,29.62
2018-06-21T08:03:54.959Z,29.52
2018-06-21T08:06:23.930Z,29.93
2018-06-21T08:08:52.895Z,29.30
2018-06-21T08:11:21.923Z,29.95
2018-06-21T08:13:50.940Z,30.03
2018-06-21T08:16:19.942Z,29.89
2018-06-21T08:18:48.929Z,29.86
2018-06-21T08:21:17.954Z,29.78
2018-06-21T08:23:46.918Z,30.08
2018-06-21T08:26:15.924Z,30.09
2018-06-21T08:28:44.871Z,30.46
2018-06-21T08:31:13.878Z,30.36
2018-06-21T08:33:43.095Z,30.46
2018-06-21T08:36:12.268Z,30.63
2018-06-21T08:38:41.243Z,30.17
2018-06-21T08:41:10.221Z,30.21
2018-06-21T08:43:39.233Z,30.53
2018-06-21T08:46:08.798Z,30.43
2018-06-21T08:48:38.143Z,30.38
2018-06-21T08:51:07.219Z,30.57
2018-06-21T08:53:36.204Z,30.16
2018-06-21T08:56:05.222Z,30.22
2018-06-21T08:58:34.207Z,29.94
2018-06-21T09:01:03.162Z,29.78
2018-06-21T09:03:32.164Z,30.00
2018-06-21T09:06:01.370Z,29.91
2018-06-21T09:08:30.439Z,30.41
2018-06-21T09:10:59.367Z,30.82
2018-06-21T09:13:36.281Z,31.41
2018-06-21T09:16:06.330Z,31.05
2018-06-21T09:18:35.311Z,31.51
2018-06-21T09:21:04.322Z,30.96
2018-06-21T09:23:33.319Z,31.38
2018-06-21T09:26:02.612Z,31.61
2018-06-21T09:28:31.678Z,31.78
2018-06-21T09:31:00.646Z,31.66
2018-06-21T09:33:29.630Z,30.65
2018-06-21T09:35:58.624Z,30.51
2018-06-21T09:38:32.787Z,29.74
2018-06-21T09:41:06.859Z,29.14
2018-06-21T09:43:50.298Z,28.85
2018-06-21T09:46:14.979Z,26.74
2018-06-21T09:48:49.812Z,26.67
2018-06-21T09:51:18.825Z,26.78
2018-06-21T09:53:47.826Z,25.98
2018-06-21T09:56:16.782Z,25.84
2018-06-21T09:58:45.731Z,25.21
2018-06-21T10:01:14.775Z,24.81
2018-06-21T10:03:43.745Z,25.46
2018-06-21T10:06:12.760Z,25.43
2018-06-21T10:08:41.706Z,25.87
2018-06-21T10:11:10.701Z,25.55
2018-06-21T10:13:39.629Z,25.72
2018-06-21T10:16:08.690Z,25.43
2018-06-21T10:18:37.620Z,25.72
2018-06-21T10:21:06.614Z,25.87
2018-06-21T10:23:35.590Z,25.47
2018-06-21T10:26:04.594Z,25.72
2018-06-21T10:28:33.527Z,25.37
2018-06-21T10:31:02.506Z,25.18
2018-06-21T10:33:31.727Z,25.23
2018-06-21T10:36:00.847Z,25.32
2018-06-21T10:38:29.786Z,24.90
2018-06-21T10:40:58.769Z,25.06
2018-06-21T10:43:27.745Z,25.35
2018-06-21T10:45:56.703Z,25.61
2018-06-21T10:48:25.740Z,25.70
2018-06-21T10:50:54.706Z,26.84
2018-06-21T10:53:23.665Z,28.00
2018-06-21T10:55:52.935Z,28.92
2018-06-21T10:58:21.961Z,28.40
2018-06-21T11:00:50.922Z,29.09
2018-06-21T11:03:20.039Z,28.52
2018-06-21T11:05:48.947Z,28.85
2018-06-21T11:08:17.937Z,29.14
2018-06-21T11:10:46.966Z,29.10
2018-06-21T11:13:15.960Z,29.07
2018-06-21T11:15:44.919Z,27.49
2018-06-21T11:18:13.962Z,27.79
2018-06-21T11:20:43.346Z,28.57
2018-06-21T11:23:12.352Z,28.93
2018-06-21T11:25:41.307Z,29.40
2018-06-21T11:28:10.303Z,29.43
2018-06-21T11:30:39.266Z,28.83
2018-06-21T11:33:08.255Z,29.45
2018-06-21T11:35:37.202Z,29.74
2018-06-21T11:38:06.273Z,30.37
2018-06-21T11:40:35.238Z,30.32
2018-06-21T11:43:04.211Z,29.73
2018-06-21T11:45:33.149Z,28.98
2018-06-21T11:48:02.114Z,29.03
2018-06-21T11:50:31.055Z,29.33
2018-06-21T11:53:00.103Z,28.05
2018-06-21T11:55:29.062Z,28.85
2018-06-21T11:57:58.043Z,30.04
2018-06-21T12:00:27.006Z,30.49
2018-06-21T12:02:55.974Z,30.59
2018-06-21T12:05:24.920Z,30.94
2018-06-21T12:07:53.979Z,29.43
2018-06-21T12:10:22.972Z,30.35
2018-06-21T12:12:51.953Z,29.65
2018-06-21T12:15:20.925Z,30.26
2018-06-21T12:17:49.887Z,29.55
2018-06-21T12:20:18.874Z,29.96
2018-06-21T12:22:47.987Z,30.68
2018-06-21T12:25:17.014Z,31.32
2018-06-21T12:27:46.044Z,31.26
2018-06-21T12:30:15.092Z,31.56
2018-06-21T12:32:44.026Z,31.07
2018-06-21T12:35:13.029Z,30.74
2018-06-21T12:37:41.995Z,30.86
2018-06-21T12:40:11.007Z,30.92
2018-06-21T12:42:39.973Z,30.57
2018-06-21T12:45:09.007Z,30.53
2018-06-21T12:47:38.042Z,31.08
2018-06-21T12:50:07.054Z,31.12
2018-06-21T12:52:36.108Z,30.49
2018-06-21T12:55:05.043Z,30.98
2018-06-21T12:57:33.991Z,31.01
2018-06-21T13:00:02.995Z,30.84
2018-06-21T13:02:31.982Z,31.38
2018-06-21T13:05:00.962Z,30.93
2018-06-21T13:07:29.924Z,30.91
2018-06-21T13:10:09.986Z,30.96
2018-06-21T13:12:51.210Z,30.91
2018-06-21T13:15:20.217Z,30.98
2018-06-21T13:17:49.187Z,30.63
2018-06-21T13:20:18.199Z,30.62
2018-06-21T13:22:47.175Z,29.88
2018-06-21T13:25:16.168Z,29.79
2018-06-21T13:27:45.111Z,28.93
2018-06-21T13:30:14.163Z,29.22
2018-06-21T13:32:43.115Z,29.32
2018-06-21T13:35:12.126Z,29.65
2018-06-21T13:37:41.090Z,29.20
2018-06-21T13:40:10.035Z,29.33
2018-06-21T13:42:39.111Z,28.99
2018-06-21T13:45:08.119Z,29.37
2018-06-21T13:47:37.110Z,30.07
2018-06-21T13:50:06.282Z,29.44
2018-06-21T13:52:35.284Z,29.33
2018-06-21T13:55:04.229Z,29.43
2018-06-21T13:57:33.222Z,29.54
2018-06-21T14:00:02.175Z,29.74
2018-06-21T14:02:31.170Z,29.63
2018-06-21T14:05:00.123Z,29.68
2018-06-21T14:07:29.195Z,29.56
2018-06-21T14:09:58.794Z,30.08
2018-06-21T14:12:28.417Z,29.41
2018-06-21T14:14:57.604Z,29.75
2018-06-21T14:17:26.622Z,29.32
2018-06-21T14:19:55.586Z,29.45
2018-06-21T14:22:24.590Z,28.73
2018-06-21T14:24:53.529Z,28.37
2018-06-21T14:27:22.511Z,28.79
2018-06-21T14:29:51.465Z,27.78
2018-06-21T14:32:20.496Z,28.89
2018-06-21T14:34:49.444Z,29.29
2018-06-21T14:37:18.434Z,29.26
2018-06-21T14:39:47.393Z,28.25
2018-06-21T14:42:16.432Z,29.10
2018-06-21T14:44:45.374Z,29.25
2018-06-21T14:47:14.365Z,28.99
2018-06-21T14:49:43.315Z,28.10
2018-06-21T14:52:12.315Z,27.48
2018-06-21T14:54:41.353Z,28.11
2018-06-21T14:57:10.363Z,27.63
2018-06-21T14:59:39.326Z,27.70
2018-06-21T15:02:08.325Z,28.32
2018-06-21T15:04:37.294Z,28.09
2018-06-21T15:07:06.286Z,28.17
2018-06-21T15:09:35.270Z,28.00
2018-06-21T15:12:04.227Z,27.92
2018-06-21T15:14:33.275Z,28.48
2018-06-21T15:17:02.205Z,27.93
2018-06-21T15:19:31.198Z,27.97
2018-06-21T15:22:00.172Z,28.47
2018-06-21T15:24:29.133Z,28.33
2018-06-21T15:26:58.078Z,28.59
2018-06-21T15:29:27.090Z,27.77
2018-06-21T15:31:56.243Z,27.87
2018-06-21T15:34:25.224Z,28.25
2018-06-21T15:36:54.191Z,28.06
2018-06-21T15:39:24.502Z,27.65
2018-06-21T15:41:53.482Z,27.03
2018-06-21T15:44:22.495Z,28.07
2018-06-21T15:46:51.474Z,28.33
2018-06-21T15:49:20.474Z,28.14
2018-06-21T15:51:49.428Z,28.53
2018-06-21T15:54:18.442Z,27.92
2018-06-21T15:56:47.391Z,27.64
2018-06-21T15:59:16.415Z,27.37
2018-06-21T16:01:45.387Z,26.02
2018-06-21T16:04:14.377Z,26.22
2018-06-21T16:06:43.314Z,26.23
2018-06-21T16:09:12.294Z,26.20
2018-06-21T16:11:41.365Z,26.45
2018-06-21T16:14:10.353Z,26.56
2018-06-21T16:16:39.358Z,26.19
2018-06-21T16:19:08.474Z,25.39
2018-06-21T16:21:37.566Z,25.77
2018-06-21T16:24:06.573Z,26.09
2018-06-21T16:26:35.580Z,25.76
2018-06-21T16:29:04.590Z,25.60
2018-06-21T16:31:33.583Z,25.51
2018-06-21T16:34:02.582Z,25.53
2018-06-21T16:36:31.573Z,25.07
2018-06-21T16:39:00.521Z,24.67
2018-06-21T16:41:29.603Z,24.61
2018-06-21T16:43:58.530Z,24.60
2018-06-21T16:46:27.576Z,24.19
2018-06-21T16:48:56.613Z,24.08
2018-06-21T16:51:25.705Z,24.31
2018-06-21T16:53:54.644Z,24.57
2018-06-21T16:56:23.647Z,24.42
2018-06-21T16:58:52.607Z,24.51
2018-06-21T17:01:21.602Z,24.26
2018-06-21T17:03:50.595Z,23.41
2018-06-21T17:06:19.557Z,23.33
2018-06-21T17:08:48.574Z,23.72
2018-06-21T17:11:17.507Z,23.82
2018-06-21T17:13:46.497Z,23.34
2018-06-21T17:16:15.486Z,23.66
2018-06-21T17:18:44.562Z,23.59
2018-06-21T17:21:13.519Z,23.71
2018-06-21T17:23:42.557Z,22.91
2018-06-21T17:26:11.739Z,23.23
2018-06-21T17:28:40.730Z,23.16
2018-06-21T17:31:09.687Z,22.99
2018-06-21T17:33:38.848Z,22.54
2018-06-21T17:36:07.869Z,22.98
2018-06-21T17:38:36.890Z,23.41
2018-06-21T17:41:05.898Z,22.96
2018-06-21T17:43:34.903Z,22.75
2018-06-21T17:46:03.848Z,22.83
2018-06-21T17:48:32.831Z,22.62
2018-06-21T17:51:01.791Z,22.63
2018-06-21T17:53:30.750Z,22.29
2018-06-21T17:55:59.806Z,22.57
2018-06-21T17:58:28.733Z,22.62
2018-06-21T18:00:57.866Z,22.46
2018-06-21T18:03:26.853Z,21.75
2018-06-21T18:05:55.850Z,22.13
2018-06-21T18:08:24.806Z,21.87
2018-06-21T18:10:53.794Z,21.41
2018-06-21T18:13:22.802Z,21.79
2018-06-21T18:15:51.815Z,21.44
2018-06-21T18:18:20.775Z,21.56
2018-06-21T18:20:49.775Z,21.78
2018-06-21T18:23:18.752Z,21.60
2018-06-21T18:25:47.726Z,21.79
2018-06-21T18:28:16.690Z,21.68
2018-06-21T18:30:45.854Z,21.47
2018-06-21T18:33:14.835Z,21.23
2018-06-21T18:35:43.867Z,21.13
2018-06-21T18:38:12.870Z,20.42
2018-06-21T18:40:41.847Z,21.12
2018-06-21T18:43:10.809Z,20.73
2018-06-21T18:45:39.797Z,20.73
2018-06-21T18:48:08.748Z,20.86
2018-06-21T18:50:37.743Z,20.95
2018-06-21T18:53:06.718Z,20.51
2018-06-21T18:55:35.739Z,20.75
2018-06-21T18:58:04.694Z,20.62
2018-06-21T19:00:33.662Z,20.70
2018-06-21T19:03:02.664Z,20.12
2018-06-21T19:05:31.643Z,20.25
2018-06-21T19:08:05.721Z,20.43
2018-06-21T19:10:39.802Z,20.14
2018-06-21T19:13:08.864Z,20.02
2018-06-21T19:15:37.842Z,20.30
2018-06-21T19:18:06.853Z,19.99
2018-06-21T19:20:35.853Z,20.12
2018-06-21T19:23:04.873Z,19.76
2018-06-21T19:25:33.885Z,19.79
2018-06-21T19:28:02.851Z,19.76
2018-06-21T19:30:31.799Z,19.45
2018-06-21T19:33:00.806Z,19.71
2018-06-21T19:35:29.740Z,19.51
2018-06-21T19:37:58.740Z,19.33
2018-06-21T19:40:27.699Z,19.69
2018-06-21T19:42:56.761Z,19.55
2018-06-21T19:45:26.082Z,19.70
2018-06-21T19:47:55.816Z,19.84
2018-06-21T19:50:25.305Z,19.79
2018-06-21T19:52:54.709Z,19.47
2018-06-21T19:55:23.780Z,19.45
2018-06-21T19:57:52.803Z,19.15
2018-06-21T20:00:21.817Z,19.23
2018-06-21T20:02:55.870Z,19.62
2018-06-21T20:05:24.871Z,19.37
2018-06-21T20:07:53.872Z,19.33
2018-06-21T20:10:22.811Z,19.23
2018-06-21T20:12:51.830Z,19.21
2018-06-21T20:15:20.871Z,19.44
2018-06-21T20:17:49.811Z,19.22
2018-06-21T20:20:23.897Z,19.32
2018-06-21T20:22:52.872Z,19.30
2018-06-21T20:25:21.887Z,18.91
2018-06-21T20:27:50.822Z,19.03
2018-06-21T20:30:19.821Z,18.98
2018-06-21T20:32:48.764Z,19.19
2018-06-21T20:35:17.947Z,18.88
2018-06-21T20:37:46.889Z,18.83
2018-06-21T20:40:15.894Z,18.73
2018-06-21T20:42:44.840Z,18.52
2018-06-21T20:45:13.822Z,18.97
2018-06-21T20:47:42.770Z,18.94
2018-06-21T20:50:11.757Z,18.55
2018-06-21T20:52:40.790Z,18.40
2018-06-21T20:55:09.815Z,18.66
2018-06-21T20:57:38.770Z,18.71
2018-06-21T21:00:07.774Z,18.61
2018-06-21T21:02:36.746Z,18.60
2018-06-21T21:05:11.813Z,18.53
2018-06-21T21:07:40.987Z,18.73
2018-06-21T21:10:11.229Z,18.58
2018-06-21T21:12:40.603Z,18.56
2018-06-21T21:15:10.613Z,18.60
2018-06-21T21:17:39.581Z,18.18
2018-06-21T21:20:09.104Z,18.11
2018-06-21T21:22:39.062Z,18.19
2018-06-21T21:25:08.095Z,18.33
2018-06-21T21:27:37.145Z,18.44
2018-06-21T21:30:07.578Z,18.22
2018-06-21T21:32:36.593Z,18.15
2018-06-21T21:35:05.669Z,18.20
2018-06-21T21:37:34.678Z,18.25
2018-06-21T21:40:05.708Z,17.59
2018-06-21T21:42:36.068Z,17.60
2018-06-21T21:45:05.031Z,17.48
2018-06-21T21:47:34.063Z,17.55
2018-06-21T21:50:03.061Z,17.37
2018-06-21T21:52:32.107Z,17.10
2018-06-21T21:55:01.098Z,16.99
2018-06-21T21:57:30.113Z,17.58
2018-06-21T21:59:59.073Z,17.45
2018-06-21T22:02:28.174Z,17.52
2018-06-21T22:04:57.124Z,17.20
2018-06-21T22:07:26.150Z,17.33
2018-06-21T22:09:55.113Z,17.36
2018-06-21T22:12:24.111Z,17.33
2018-06-21T22:14:53.086Z,17.33
2018-06-21T22:17:22.100Z,17.41
2018-06-21T22:19:51.093Z,17.61
2018-06-21T22:22:20.103Z,17.69
2018-06-21T22:24:49.071Z,17.74
2018-06-21T22:27:18.048Z,17.81
2018-06-21T22:29:46.981Z,17.25
2018-06-21T22:32:15.994Z,17.49
2018-06-21T22:34:44.994Z,17.34
2018-06-21T22:37:14.050Z,17.08
2018-06-21T22:39:43.015Z,17.06
2018-06-21T22:42:12.023Z,17.26
2018-06-21T22:44:41.034Z,17.24
2018-06-21T22:47:10.041Z,17.21
2018-06-21T22:49:38.999Z,16.87
2018-06-21T22:52:08.247Z,17.09
2018-06-21T22:54:37.207Z,16.80
2018-06-21T22:57:06.200Z,16.93
2018-06-21T22:59:35.174Z,16.99
2018-06-21T23:02:04.167Z,17.32
2018-06-21T23:04:33.194Z,17.50
2018-06-21T23:07:02.169Z,17.59
2018-06-21T23:09:31.177Z,17.44
2018-06-21T23:12:00.152Z,17.19
2018-06-21T23:14:29.155Z,17.10
2018-06-21T23:16:58.877Z,16.93
2018-06-21T23:19:30.288Z,16.74
2018-06-21T23:21:59.933Z,16.97
2018-06-21T23:24:28.950Z,16.99
2018-06-21T23:26:57.943Z,17.09
2018-06-21T23:29:26.940Z,17.15
2018-06-21T23:31:55.927Z,16.36
2018-06-21T23:34:24.938Z,16.65
2018-06-21T23:36:53.907Z,16.62
2018-06-21T23:39:22.924Z,16.67
2018-06-21T23:41:51.917Z,16.47
2018-06-21T23:44:20.910Z,15.88
2018-06-21T23:46:49.876Z,16.36
2018-06-21T23:49:18.870Z,16.57
2018-06-21T23:51:47.843Z,16.58
2018-06-21T23:54:16.932Z,16.67
2018-06-21T23:56:45.990Z,16.63
2018-06-21T23:59:15.006Z,15.88
